createdAt,value
2022-10-23T00:01:43.973Z,100652.13
2022-10-23T00:04:12.492Z,100653.97
2022-10-23T00:06:39.596Z,100652.63
2022-10-23T00:09:08.726Z,100651.31
2022-10-23T00:11:36.338Z,100649.50
2022-10-23T00:14:06.534Z,100651.59
2022-10-23T00:16:33.607Z,100653.84
2022-10-23T00:19:00.241Z,100656.59
2022-10-23T00:21:27.572Z,100654.25
2022-10-23T00:23:54.247Z,100654.09
2022-10-23T00:26:21.141Z,100651.63
2022-10-23T00:28:50.873Z,100652.44
2022-10-23T00:31:19.245Z,100655.22
2022-10-23T00:33:46.475Z,100648.78
2022-10-23T00:36:15.149Z,100650.34
2022-10-23T00:38:44.533Z,100651.66
2022-10-23T00:41:16.714Z,100651.44
2022-10-23T00:43:55.521Z,100658.34
2022-10-23T00:46:22.083Z,100657.66
2022-10-23T00:48:48.834Z,100660.53
2022-10-23T00:51:16.336Z,100648.88
2022-10-23T00:53:43.892Z,100651.16
2022-10-23T00:56:11.352Z,100656.28
2022-10-23T00:58:38.043Z,100660.44
2022-10-23T01:01:18.208Z,100662.50
2022-10-23T01:03:47.276Z,100656.81
2022-10-23T01:06:31.260Z,100659.16
2022-10-23T01:09:31.772Z,100659.25
2022-10-23T01:12:19.612Z,100655.75
2022-10-23T01:15:02.385Z,100659.34
2022-10-23T01:17:51.847Z,100661.72
2022-10-23T01:20:27.527Z,100658.16
2022-10-23T01:23:23.525Z,100654.84
2022-10-23T01:26:21.446Z,100657.81
2022-10-23T01:29:32.977Z,100667.28
2022-10-23T01:32:21.916Z,100664.41
2022-10-23T01:34:57.256Z,100665.03
2022-10-23T01:37:42.160Z,100673.72
2022-10-23T01:40:20.006Z,100677.59
2022-10-23T01:42:50.555Z,100681.53
2022-10-23T01:45:37.324Z,100683.94
2022-10-23T01:48:09.906Z,100685.72
2022-10-23T01:50:38.466Z,100677.75
2022-10-23T01:53:05.905Z,100685.53
2022-10-23T01:55:33.415Z,100683.94
2022-10-23T01:58:07.560Z,100680.28
2022-10-23T02:00:43.078Z,100678.22
2022-10-23T02:03:13.298Z,100680.22
2022-10-23T02:05:40.043Z,100680.31
2022-10-23T02:08:07.086Z,100686.56
2022-10-23T02:10:52.472Z,100681.66
2022-10-23T02:13:34.321Z,100681.19
2022-10-23T02:16:41.167Z,100681.72
2022-10-23T02:19:31.036Z,100673.22
2022-10-23T02:22:23.482Z,100675.66
2022-10-23T02:24:55.700Z,100673.09
2022-10-23T02:27:38.989Z,100670.75
2022-10-23T02:30:14.038Z,100672.94
2022-10-23T02:32:48.306Z,100672.44
2022-10-23T02:35:19.479Z,100668.88
2022-10-23T02:38:00.822Z,100685.56
2022-10-23T02:40:41.688Z,100684.50
2022-10-23T02:43:17.608Z,100681.16
2022-10-23T02:46:16.230Z,100689.00
2022-10-23T02:48:57.956Z,100682.31
2022-10-23T02:51:42.802Z,100682.81
2022-10-23T02:54:51.016Z,100697.91
2022-10-23T02:57:44.647Z,100695.81
2022-10-23T03:00:18.316Z,100697.28
2022-10-23T03:02:59.104Z,100703.50
2022-10-23T03:05:33.335Z,100703.69
2022-10-23T03:08:03.726Z,100702.06
2022-10-23T03:10:30.626Z,100695.34
2022-10-23T03:12:57.256Z,100708.38
2022-10-23T03:15:24.053Z,100715.19
2022-10-23T03:17:52.033Z,100712.06
2022-10-23T03:20:18.937Z,100705.69
2022-10-23T03:22:45.767Z,100710.53
2022-10-23T03:25:12.975Z,100706.78
2022-10-23T03:27:39.530Z,100711.28
2022-10-23T03:30:10.095Z,100701.91
2022-10-23T03:32:41.060Z,100706.91
2022-10-23T03:35:08.230Z,100709.09
2022-10-23T03:37:34.865Z,100698.16
2022-10-23T03:40:02.136Z,100696.84
2022-10-23T03:42:32.609Z,100707.53
2022-10-23T03:44:59.242Z,100707.69
2022-10-23T03:47:26.011Z,100717.06
2022-10-23T03:49:52.633Z,100711.59
2022-10-23T03:52:19.324Z,100706.22
2022-10-23T03:54:45.976Z,100715.28
2022-10-23T03:57:12.624Z,100709.16
2022-10-23T03:59:39.214Z,100710.03
2022-10-23T04:02:07.153Z,100719.31
2022-10-23T04:04:33.778Z,100715.16
2022-10-23T04:07:00.381Z,100714.94
2022-10-23T04:09:30.308Z,100712.09
2022-10-23T04:11:57.106Z,100710.34
2022-10-23T04:14:27.503Z,100710.28
2022-10-23T04:16:55.441Z,100718.13
2022-10-23T04:19:22.017Z,100710.84
2022-10-23T04:21:48.740Z,100721.47
2022-10-23T04:24:15.331Z,100715.81
2022-10-23T04:26:42.451Z,100719.84
2022-10-23T04:29:10.498Z,100718.66
2022-10-23T04:31:37.080Z,100719.16
2022-10-23T04:34:03.700Z,100721.91
2022-10-23T04:36:31.932Z,100725.03
2022-10-23T04:39:06.416Z,100722.09
2022-10-23T04:41:33.217Z,100726.69
2022-10-23T04:44:00.544Z,100723.44
2022-10-23T04:46:27.244Z,100722.75
2022-10-23T04:48:54.020Z,100723.25
2022-10-23T04:51:28.378Z,100724.19
2022-10-23T04:54:07.780Z,100730.25
2022-10-23T04:56:52.917Z,100735.47
2022-10-23T04:59:21.192Z,100726.06
2022-10-23T05:01:47.839Z,100735.75
2022-10-23T05:04:15.461Z,100734.31
2022-10-23T05:07:00.627Z,100737.13
2022-10-23T05:09:41.982Z,100728.16
2022-10-23T05:12:20.741Z,100730.03
2022-10-23T05:14:47.675Z,100739.97
2022-10-23T05:17:23.456Z,100731.38
2022-10-23T05:19:54.102Z,100733.78
2022-10-23T05:22:25.380Z,100733.25
2022-10-23T05:24:54.430Z,100731.31
2022-10-23T05:27:24.291Z,100732.66
2022-10-23T05:29:52.818Z,100732.75
2022-10-23T05:32:26.099Z,100732.25
2022-10-23T05:34:53.935Z,100732.00
2022-10-23T05:37:23.668Z,100727.84
2022-10-23T05:39:59.147Z,100736.94
2022-10-23T05:42:26.044Z,100732.97
2022-10-23T05:44:54.855Z,100733.69
2022-10-23T05:47:49.088Z,100738.16
2022-10-23T05:50:36.119Z,100736.53
2022-10-23T05:53:18.354Z,100734.94
2022-10-23T05:56:07.506Z,100739.84
2022-10-23T05:59:07.748Z,100741.00
2022-10-23T06:01:52.607Z,100738.50
2022-10-23T06:04:34.300Z,100734.31
2022-10-23T06:07:25.543Z,100746.13
2022-10-23T06:09:54.567Z,100740.28
2022-10-23T06:12:22.592Z,100742.25
2022-10-23T06:14:51.011Z,100741.09
2022-10-23T06:17:18.826Z,100746.66
2022-10-23T06:19:46.769Z,100745.72
2022-10-23T06:22:17.136Z,100748.19
2022-10-23T06:24:49.341Z,100749.13
2022-10-23T06:27:22.596Z,100754.88
2022-10-23T06:29:49.298Z,100749.34
2022-10-23T06:32:15.951Z,100747.47
2022-10-23T06:34:49.780Z,100751.00
2022-10-23T06:37:16.418Z,100746.09
2022-10-23T06:39:52.210Z,100748.78
2022-10-23T06:42:23.862Z,100758.63
2022-10-23T06:44:57.234Z,100746.91
2022-10-23T06:47:42.813Z,100748.88
2022-10-23T06:50:15.328Z,100744.59
2022-10-23T06:52:47.958Z,100745.03
2022-10-23T06:55:17.469Z,100740.31
2022-10-23T06:57:44.587Z,100751.91
2022-10-23T07:00:12.629Z,100745.97
2022-10-23T07:02:47.077Z,100752.88
2022-10-23T07:05:14.030Z,100751.06
2022-10-23T07:07:41.555Z,100753.91
2022-10-23T07:10:10.008Z,100758.31
2022-10-23T07:12:40.998Z,100757.19
2022-10-23T07:15:27.565Z,100764.06
2022-10-23T07:17:54.576Z,100764.38
2022-10-23T07:20:24.144Z,100771.50
2022-10-23T07:22:54.992Z,100768.06
2022-10-23T07:25:30.824Z,100774.72
2022-10-23T07:28:00.352Z,100774.28
2022-10-23T07:30:28.858Z,100777.88
2022-10-23T07:32:56.319Z,100776.91
2022-10-23T07:35:37.145Z,100785.88
2022-10-23T07:38:22.111Z,100787.63
2022-10-23T07:40:54.085Z,100781.38
2022-10-23T07:43:21.279Z,100776.31
2022-10-23T07:45:49.475Z,100783.38
2022-10-23T07:48:25.184Z,100795.13
2022-10-23T07:51:01.443Z,100790.66
2022-10-23T07:53:28.558Z,100786.19
2022-10-23T07:56:02.399Z,100792.81
2022-10-23T07:58:50.801Z,100790.63
2022-10-23T08:01:38.413Z,100789.41
2022-10-23T08:04:05.829Z,100779.69
2022-10-23T08:06:35.416Z,100783.75
2022-10-23T08:09:06.180Z,100797.00
2022-10-23T08:11:35.754Z,100797.53
2022-10-23T08:14:06.183Z,100791.50
2022-10-23T08:16:34.575Z,100783.78
2022-10-23T08:19:07.737Z,100788.75
2022-10-23T08:21:36.955Z,100785.00
2022-10-23T08:24:04.633Z,100799.16
2022-10-23T08:26:31.572Z,100804.84
2022-10-23T08:28:59.721Z,100801.28
2022-10-23T08:31:27.918Z,100804.47
2022-10-23T08:34:13.581Z,100799.34
2022-10-23T08:36:42.122Z,100805.53
2022-10-23T08:39:09.567Z,100804.75
2022-10-23T08:41:42.930Z,100800.47
2022-10-23T08:44:23.170Z,100804.69
2022-10-23T08:47:18.596Z,100810.47
2022-10-23T08:50:25.310Z,100796.97
2022-10-23T08:53:10.118Z,100803.00
2022-10-23T08:55:41.621Z,100799.78
2022-10-23T08:58:15.398Z,100822.16
2022-10-23T09:00:43.793Z,100813.28
2022-10-23T09:03:12.802Z,100818.13
2022-10-23T09:06:08.899Z,100819.59
2022-10-23T09:08:59.543Z,100806.84
2022-10-23T09:11:28.914Z,100809.47
2022-10-23T09:14:19.846Z,100816.97
2022-10-23T09:16:59.514Z,100814.47
2022-10-23T09:19:33.350Z,100811.25
2022-10-23T09:22:00.349Z,100825.91
2022-10-23T09:24:31.615Z,100824.03
2022-10-23T09:27:00.627Z,100839.03
2022-10-23T09:29:36.111Z,100846.47
2022-10-23T09:32:06.003Z,100854.03
2022-10-23T09:34:34.562Z,100849.84
2022-10-23T09:37:21.654Z,100851.56
2022-10-23T09:39:48.405Z,100844.06
2022-10-23T09:42:24.397Z,100839.94
2022-10-23T09:44:54.003Z,100841.66
2022-10-23T09:47:24.472Z,100844.81
2022-10-23T09:49:56.706Z,100852.44
2022-10-23T09:52:36.289Z,100851.53
2022-10-23T09:55:19.074Z,100851.03
2022-10-23T09:57:47.085Z,100839.53
2022-10-23T10:00:16.775Z,100840.63
2022-10-23T10:02:55.536Z,100832.00
2022-10-23T10:05:38.725Z,100837.69
2022-10-23T10:08:44.606Z,100844.50
2022-10-23T10:11:20.671Z,100843.94
2022-10-23T10:14:02.495Z,100851.38
2022-10-23T10:17:05.748Z,100859.28
2022-10-23T10:19:40.812Z,100851.91
2022-10-23T10:22:40.553Z,100859.31
2022-10-23T10:25:32.158Z,100854.84
2022-10-23T10:28:01.608Z,100848.81
2022-10-23T10:30:52.325Z,100851.13
2022-10-23T10:33:33.700Z,100856.78
2022-10-23T10:36:36.397Z,100854.00
2022-10-23T10:39:12.018Z,100848.31
2022-10-23T10:42:07.267Z,100848.88
2022-10-23T10:44:52.946Z,100858.41
2022-10-23T10:47:32.209Z,100853.16
2022-10-23T10:50:47.483Z,100856.13
2022-10-23T10:53:24.263Z,100846.41
2022-10-23T10:55:54.342Z,100848.81
2022-10-23T10:58:36.142Z,100840.91
2022-10-23T11:01:13.591Z,100837.00
2022-10-23T11:03:52.535Z,100833.34
2022-10-23T11:06:23.030Z,100837.50
2022-10-23T11:08:58.105Z,100835.44
2022-10-23T11:11:40.737Z,100834.50
2022-10-23T11:14:17.649Z,100837.56
2022-10-23T11:16:51.200Z,100849.81
2022-10-23T11:19:22.696Z,100840.69
2022-10-23T11:22:31.229Z,100836.78
2022-10-23T11:25:38.904Z,100840.69
2022-10-23T11:28:32.431Z,100834.50
2022-10-23T11:31:20.694Z,100841.06
2022-10-23T11:34:07.523Z,100841.28
2022-10-23T11:36:48.894Z,100838.91
2022-10-23T11:39:27.964Z,100837.53
2022-10-23T11:42:04.589Z,100842.00
2022-10-23T11:44:45.236Z,100831.19
2022-10-23T11:47:39.676Z,100829.34
2022-10-23T11:50:06.807Z,100823.31
2022-10-23T11:52:45.558Z,100827.78
2022-10-23T11:55:25.826Z,100825.75
2022-10-23T11:58:16.488Z,100823.34
2022-10-23T12:01:06.261Z,100827.78
2022-10-23T12:03:58.132Z,100820.69
2022-10-23T12:06:32.999Z,100829.84
2022-10-23T12:09:04.325Z,100835.94
2022-10-23T12:11:47.113Z,100839.44
2022-10-23T12:14:32.033Z,100835.50
2022-10-23T12:16:59.438Z,100824.94
2022-10-23T12:19:43.879Z,100823.94
2022-10-23T12:22:11.446Z,100825.69
2022-10-23T12:24:55.571Z,100827.44
2022-10-23T12:27:32.992Z,100815.97
2022-10-23T12:30:29.170Z,100805.44
2022-10-23T12:33:06.541Z,100810.00
2022-10-23T12:35:47.678Z,100809.50
2022-10-23T12:38:35.584Z,100809.53
2022-10-23T12:41:12.924Z,100809.13
2022-10-23T12:43:42.391Z,100796.88
2022-10-23T12:46:17.642Z,100807.69
2022-10-23T12:48:53.814Z,100809.13
2022-10-23T12:51:25.973Z,100802.81
2022-10-23T12:53:52.895Z,100814.97
2022-10-23T12:56:20.398Z,100813.06
2022-10-23T12:58:58.079Z,100810.63
2022-10-23T13:01:35.128Z,100808.06
2022-10-23T13:04:13.750Z,100800.06
2022-10-23T13:06:40.488Z,100788.13
2022-10-23T13:09:28.237Z,100783.28
2022-10-23T13:12:30.748Z,100779.25
2022-10-23T13:15:06.659Z,100777.88
2022-10-23T13:17:39.379Z,100780.44
2022-10-23T13:20:18.061Z,100771.41
2022-10-23T13:22:47.725Z,100776.38
2022-10-23T13:25:24.777Z,100775.25
2022-10-23T13:27:51.902Z,100769.44
2022-10-23T13:30:33.277Z,100778.00
2022-10-23T13:32:59.954Z,100777.03
2022-10-23T13:35:27.011Z,100775.53
2022-10-23T13:37:54.946Z,100772.06
2022-10-23T13:40:27.302Z,100768.59
2022-10-23T13:42:56.170Z,100769.69
2022-10-23T13:45:26.135Z,100766.94
2022-10-23T13:47:52.867Z,100761.13
2022-10-23T13:50:19.990Z,100759.66
2022-10-23T13:52:47.664Z,100757.91
2022-10-23T13:55:25.407Z,100755.59
2022-10-23T13:57:52.255Z,100750.22
2022-10-23T14:00:19.221Z,100749.53
2022-10-23T14:02:45.869Z,100745.25
2022-10-23T14:05:12.926Z,100741.06
2022-10-23T14:07:39.943Z,100745.44
2022-10-23T14:10:07.046Z,100742.13
2022-10-23T14:12:43.092Z,100738.50
2022-10-23T14:15:11.242Z,100735.75
2022-10-23T14:17:38.141Z,100742.22
2022-10-23T14:29:02.380Z,100727.94
2022-10-23T14:31:33.681Z,100733.25
2022-10-23T14:34:03.531Z,100730.94
2022-10-23T14:36:38.735Z,100726.66
2022-10-23T14:39:16.543Z,100728.75
2022-10-23T14:41:43.241Z,100725.25
2022-10-23T14:44:09.824Z,100720.91
2022-10-23T14:46:38.179Z,100723.88
2022-10-23T14:49:05.028Z,100722.34
2022-10-23T14:54:43.252Z,100714.59
2022-10-23T14:57:10.591Z,100708.38
2022-10-23T14:59:37.162Z,100708.53
2022-10-23T15:02:07.132Z,100713.38
2022-10-23T15:04:33.954Z,100709.97
2022-10-23T15:07:00.593Z,100710.19
2022-10-23T15:09:27.317Z,100703.19
2022-10-23T15:11:54.067Z,100699.16
2022-10-23T15:14:22.756Z,100690.16
2022-10-23T15:16:49.412Z,100691.19
2022-10-23T15:19:18.635Z,100684.94
2022-10-23T15:21:48.760Z,100683.44
2022-10-23T15:24:16.833Z,100680.38
2022-10-23T15:26:44.013Z,100686.03
2022-10-23T15:29:15.527Z,100701.22
2022-10-23T15:31:46.092Z,100693.00
2022-10-23T15:34:21.904Z,100699.53
2022-10-23T15:36:49.391Z,100697.13
2022-10-23T15:39:19.734Z,100703.00
2022-10-23T15:41:47.695Z,100708.38
2022-10-23T15:44:16.918Z,100706.25
2022-10-23T15:46:43.690Z,100709.69
2022-10-23T15:49:10.704Z,100719.41
2022-10-23T15:51:38.402Z,100721.66
2022-10-23T15:54:10.789Z,100720.78
2022-10-23T15:56:37.500Z,100723.53
2022-10-23T15:59:04.179Z,100722.06
2022-10-23T16:01:33.096Z,100727.50
2022-10-23T16:03:59.949Z,100732.63
2022-10-23T16:06:26.624Z,100732.03
2022-10-23T16:11:23.744Z,100730.34
2022-10-23T16:13:50.916Z,100733.47
2022-10-23T16:16:18.519Z,100730.88
2022-10-23T16:18:45.689Z,100721.56
2022-10-23T16:21:24.008Z,100721.38
2022-10-23T16:23:52.302Z,100728.69
2022-10-23T16:26:20.510Z,100719.56
2022-10-23T17:02:46.699Z,100701.19
2022-10-23T17:05:13.742Z,100691.91
2022-10-23T17:07:40.493Z,100687.41
2022-10-23T17:10:07.713Z,100677.25
2022-10-23T17:12:36.154Z,100673.50
2022-10-23T17:15:03.987Z,100675.16
2022-10-23T17:17:41.159Z,100676.22
2022-10-23T17:20:10.875Z,100674.66
2022-10-23T17:28:22.897Z,100664.97
2022-10-23T17:30:49.991Z,100661.94
2022-10-23T17:33:17.436Z,100657.22
2022-10-23T17:35:45.347Z,100663.00
2022-10-23T17:38:18.078Z,100659.16
2022-10-23T17:40:46.715Z,100660.09
2022-10-23T17:43:15.273Z,100662.91
2022-10-23T17:45:45.381Z,100669.06
2022-10-23T17:48:13.834Z,100675.63
2022-10-23T17:50:41.115Z,100664.88
2022-10-23T17:53:08.402Z,100677.50
2022-10-23T17:55:41.793Z,100669.06
2022-10-23T17:58:08.893Z,100666.66
2022-10-23T18:00:37.277Z,100661.25
2022-10-23T18:03:05.124Z,100655.47
2022-10-23T18:05:33.080Z,100658.50
2022-10-23T18:08:00.452Z,100648.47
2022-10-23T18:10:27.606Z,100649.53
2022-10-23T18:12:54.261Z,100649.81
2022-10-23T18:15:20.885Z,100653.09
2022-10-23T18:17:47.510Z,100654.63
2022-10-23T18:20:15.787Z,100654.63
2022-10-23T18:22:42.987Z,100650.97
2022-10-23T18:25:10.119Z,100660.91
2022-10-23T18:40:16.725Z,100669.63
2022-10-23T18:42:43.908Z,100666.72
2022-10-23T18:45:13.733Z,100649.88
2022-10-23T18:47:41.000Z,100640.63
2022-10-23T18:50:10.578Z,100653.22
2022-10-23T18:52:37.201Z,100647.47
2022-10-23T18:55:06.076Z,100645.41
2022-10-23T18:57:33.564Z,100641.66
2022-10-23T19:00:01.112Z,100649.41
2022-10-23T19:02:29.750Z,100644.38
2022-10-23T19:04:56.569Z,100641.78
2022-10-23T19:07:23.273Z,100633.03
2022-10-23T19:09:49.874Z,100628.22
2022-10-23T19:12:17.808Z,100631.53
2022-10-23T19:14:47.117Z,100620.06
2022-10-23T19:17:24.506Z,100613.19
2022-10-23T19:20:01.596Z,100599.41
2022-10-23T19:22:31.067Z,100603.25
2022-10-23T19:25:07.441Z,100592.22
2022-10-23T19:27:34.060Z,100601.91
2022-10-23T19:30:06.307Z,100601.25
2022-10-23T19:32:32.999Z,100591.56
2022-10-23T19:35:01.162Z,100584.59
2022-10-23T19:37:27.867Z,100581.66
2022-10-23T19:39:54.599Z,100571.16
2022-10-23T19:42:21.576Z,100561.75
2022-10-23T19:44:48.391Z,100574.47
2022-10-23T19:47:15.176Z,100575.44
2022-10-23T19:49:41.870Z,100568.09
2022-10-23T19:52:08.614Z,100578.25
2022-10-23T19:54:35.967Z,100568.75
2022-10-23T19:57:02.712Z,100559.75
2022-10-23T19:59:31.501Z,100557.88
2022-10-23T20:01:58.343Z,100546.72
2022-10-23T20:04:25.247Z,100542.22
2022-10-23T20:06:54.749Z,100538.06
2022-10-23T20:09:22.470Z,100540.16
2022-10-23T20:11:52.164Z,100537.53
2022-10-23T20:14:19.885Z,100539.94
2022-10-23T20:16:48.064Z,100546.00
2022-10-23T20:21:46.853Z,100529.53
2022-10-23T20:24:15.985Z,100536.59
2022-10-23T20:26:45.265Z,100532.75
2022-10-23T20:29:12.267Z,100528.38
2022-10-23T20:31:43.347Z,100516.47
2022-10-23T20:34:10.903Z,100510.41
2022-10-23T20:36:45.568Z,100526.78
2022-10-23T20:39:19.788Z,100533.88
2022-10-23T20:41:47.519Z,100531.28
2022-10-23T20:46:44.358Z,100538.28
2022-10-23T20:49:12.474Z,100549.25
2022-10-23T20:51:39.226Z,100546.75
2022-10-23T20:54:06.184Z,100544.84
2022-10-23T20:56:35.776Z,100539.00
2022-10-23T20:59:05.748Z,100549.75
2022-10-23T21:01:34.310Z,100548.72
2022-10-23T21:04:02.757Z,100540.16
2022-10-23T21:06:45.722Z,100544.63
2022-10-23T21:09:18.908Z,100549.66
2022-10-23T21:11:45.567Z,100540.47
2022-10-23T21:14:12.522Z,100539.34
2022-10-23T21:16:41.586Z,100539.00
2022-10-23T21:19:10.376Z,100532.53
2022-10-23T21:21:37.046Z,100526.09
2022-10-23T21:24:09.684Z,100514.50
2022-10-23T21:26:36.558Z,100517.22
2022-10-23T21:29:19.779Z,100505.00
2022-10-23T21:31:55.879Z,100505.94
2022-10-23T21:34:24.151Z,100504.47
2022-10-23T21:39:37.793Z,100518.34
2022-10-23T21:42:04.511Z,100529.50
2022-10-23T21:44:32.741Z,100527.72
2022-10-23T21:46:59.414Z,100541.28
2022-10-23T21:49:28.496Z,100530.44
2022-10-23T21:51:55.394Z,100512.53
2022-10-23T21:54:22.550Z,100509.06
2022-10-23T21:56:53.632Z,100492.81
2022-10-23T21:59:28.822Z,100476.84
2022-10-23T22:01:58.513Z,100472.38
2022-10-23T22:04:25.291Z,100439.75
2022-10-23T22:06:51.960Z,100423.16
2022-10-23T22:09:20.706Z,100420.78
2022-10-23T22:11:51.542Z,100412.94
2022-10-23T22:14:18.582Z,100398.47
2022-10-23T22:16:45.517Z,100400.19
2022-10-23T22:19:14.136Z,100403.47
2022-10-23T22:21:41.174Z,100415.44
2022-10-23T22:24:08.750Z,100418.53
2022-10-23T22:26:41.385Z,100425.44
2022-10-23T22:29:10.803Z,100432.22
2022-10-23T22:31:38.742Z,100416.03
2022-10-23T22:34:18.640Z,100424.69
2022-10-23T22:36:54.779Z,100423.13
2022-10-23T22:39:22.347Z,100416.88
2022-10-23T22:41:49.497Z,100408.22
2022-10-23T22:44:16.651Z,100416.75
2022-10-23T22:46:43.610Z,100402.63
2022-10-23T22:49:10.770Z,100395.31
2022-10-23T22:51:39.647Z,100398.97
2022-10-23T22:54:06.667Z,100384.50
2022-10-23T22:56:33.530Z,100378.94
2022-10-23T22:59:00.507Z,100374.47
2022-10-23T23:01:34.305Z,100366.84
2022-10-23T23:04:08.925Z,100345.06
